Time;durP1;ratioP1;P1;durP2;ratioP2;P2;SDS_P1;SDS_P2;PMS_P1;PMS_P2;Temp;Humidity;BMP_temperature;BMP_pressure;BME280_temperature;BME280_humidity;BME280_pressure;Samples;Min_cycle;Max_cycle;Signal;HPM_P1;HPM_P2
2022/03/11 00:01:50;;;;;;;4.57;3.55;;;20.40;31.10;;;;;;5153560;27;20046;-80
2022/03/11 00:04:16;;;;;;;3.60;3.03;;;20.40;31.10;;;;;;5153766;27;20058;-80
2022/03/11 00:06:41;;;;;;;4.20;3.50;;;20.40;31.10;;;;;;5153719;27;20058;-80
2022/03/11 00:09:08;;;;;;;4.10;3.55;;;20.30;31.10;;;;;;5133405;27;20058;-79
2022/03/11 00:11:33;;;;;;;4.20;3.42;;;20.30;31.10;;;;;;5135011;27;20080;-80
2022/03/11 00:14:01;;;;;;;4.55;3.33;;;20.30;31.10;;;;;;5153653;27;20051;-80
2022/03/11 00:16:27;;;;;;;3.75;3.15;;;20.40;31.20;;;;;;5153569;27;20055;-80
2022/03/11 00:18:53;;;;;;;4.15;3.40;;;20.30;31.10;;;;;;5153768;27;20097;-79
2022/03/11 00:21:19;;;;;;;4.35;3.10;;;20.30;31.10;;;;;;5134906;27;20486;-79
2022/03/11 00:23:44;;;;;;;4.03;3.47;;;20.30;31.10;;;;;;5135241;27;20050;-79
2022/03/11 00:26:10;;;;;;;5.13;3.63;;;20.30;31.20;;;;;;5133461;27;20152;-80
2022/03/11 00:28:37;;;;;;;3.70;3.30;;;20.30;31.20;;;;;;5155222;27;20107;-80
2022/03/11 00:31:04;;;;;;;3.60;3.00;;;20.30;31.70;;;;;;5157169;27;20121;-79
2022/03/11 00:33:30;;;;;;;3.35;3.00;;;20.30;31.20;;;;;;5137273;27;20058;-79
2022/03/11 00:35:56;;;;;;;4.05;3.45;;;20.30;31.20;;;;;;5136772;27;20051;-79
2022/03/11 00:38:21;;;;;;;4.55;3.70;;;20.40;31.30;;;;;;5138320;27;20401;-80
2022/03/11 00:40:47;;;;;;;3.45;3.10;;;20.30;31.20;;;;;;5137374;27;20050;-80
2022/03/11 00:43:12;;;;;;;4.10;3.47;;;20.30;31.20;;;;;;5156658;27;20049;-79
2022/03/11 00:45:38;;;;;;;3.50;3.13;;;20.30;31.20;;;;;;5156746;27;20599;-80
2022/03/11 00:48:03;;;;;;;3.67;3.20;;;20.40;31.30;;;;;;5156712;27;20559;-80
2022/03/11 00:50:29;;;;;;;4.18;3.55;;;20.30;31.20;;;;;;5156645;27;20050;-80
2022/03/11 00:52:56;;;;;;;4.68;3.72;;;20.30;31.30;;;;;;5136334;27;20203;-79
2022/03/11 00:55:26;;;;;;;3.83;2.90;;;20.40;31.30;;;;;;5156634;27;20401;-79
2022/03/11 00:57:52;;;;;;;3.90;2.95;;;20.30;31.20;;;;;;5156774;27;20047;-80
2022/03/11 01:00:18;;;;;;;3.42;2.78;;;20.30;31.20;;;;;;5157032;27;20057;-79
2022/03/11 01:02:45;;;;;;;3.42;2.80;;;20.30;31.30;;;;;;5156384;27;20050;-79
2022/03/11 01:05:11;;;;;;;4.57;3.28;;;20.40;31.30;;;;;;5156746;27;20383;-79
2022/03/11 01:07:38;;;;;;;3.40;2.90;;;20.30;31.20;;;;;;5156329;27;20107;-79
2022/03/11 01:10:04;;;;;;;4.28;3.30;;;20.40;31.20;;;;;;5156331;27;20063;-79
2022/03/11 01:12:31;;;;;;;3.70;3.38;;;20.40;31.20;;;;;;5137676;27;20108;-79
2022/03/11 01:14:57;;;;;;;3.63;3.05;;;20.30;31.20;;;;;;5156283;27;20056;-80
2022/03/11 01:17:24;;;;;;;4.05;3.53;;;20.30;31.20;;;;;;5156028;27;20086;-80
2022/03/11 01:19:52;;;;;;;4.10;2.90;;;20.30;31.20;;;;;;5155828;27;20494;-79
2022/03/11 01:22:17;;;;;;;3.80;3.17;;;20.40;31.30;;;;;;5156142;27;20105;-80
2022/03/11 01:24:43;;;;;;;3.50;3.17;;;20.40;31.20;;;;;;5155939;27;20464;-80
2022/03/11 01:27:08;;;;;;;3.22;2.92;;;20.30;31.20;;;;;;5155898;27;20531;-80
2022/03/11 01:29:34;;;;;;;2.85;2.60;;;20.30;31.20;;;;;;5156148;27;20501;-80
2022/03/11 01:31:59;;;;;;;3.95;3.15;;;20.30;31.20;;;;;;5135360;27;20051;-80
2022/03/11 01:34:25;;;;;;;3.17;2.80;;;20.40;31.20;;;;;;5155988;27;20055;-79
2022/03/11 01:36:51;;;;;;;3.22;2.50;;;20.40;31.20;;;;;;5155767;27;20375;-80
2022/03/11 01:39:16;;;;;;;4.82;3.55;;;20.30;31.60;;;;;;5155706;27;20108;-80
2022/03/11 01:41:42;;;;;;;3.10;2.80;;;20.30;31.10;;;;;;5156233;27;20050;-80
2022/03/11 01:44:09;;;;;;;4.15;3.55;;;20.30;31.10;;;;;;5155834;27;20055;-80
2022/03/11 01:46:36;;;;;;;3.30;2.92;;;20.30;31.10;;;;;;5137181;27;20054;-80
2022/03/11 01:49:03;;;;;;;3.60;3.00;;;20.30;31.10;;;;;;5137259;27;20046;-79
2022/03/11 01:51:31;;;;;;;3.15;2.85;;;20.30;31.10;;;;;;5155695;27;20047;-80
2022/03/11 01:53:57;;;;;;;3.88;3.10;;;20.30;31.10;;;;;;5155557;27;20043;-80
2022/03/11 01:56:23;;;;;;;4.25;3.45;;;20.30;31.10;;;;;;5155818;27;20394;-80
2022/03/11 01:58:51;;;;;;;3.70;3.00;;;20.40;31.20;;;;;;5134729;27;20539;-80
2022/03/11 02:01:18;;;;;;;3.10;2.67;;;20.30;31.10;;;;;;5155396;27;20482;-80
2022/03/11 02:03:43;;;;;;;4.30;2.90;;;20.30;31.10;;;;;;5155394;27;20055;-80
2022/03/11 02:06:09;;;;;;;3.40;3.08;;;20.30;31.00;;;;;;5155713;27;20500;-79
2022/03/11 02:08:36;;;;;;;4.07;3.20;;;20.30;31.00;;;;;;5155243;27;20501;-80
2022/03/11 02:11:02;;;;;;;3.40;3.10;;;20.40;31.00;;;;;;5155366;27;20042;-80
2022/03/11 02:13:40;;;;;;;4.20;3.25;;;20.30;31.00;;;;;;5119560;27;20489;-80
2022/03/11 02:16:05;;;;;;;4.00;3.38;;;20.30;30.90;;;;;;5155278;27;20054;-79
2022/03/11 02:18:32;;;;;;;4.35;3.20;;;20.30;30.90;;;;;;5135944;27;20055;-79
2022/03/11 02:20:57;;;;;;;3.65;3.10;;;20.30;30.90;;;;;;5155154;27;20474;-79
2022/03/11 02:23:24;;;;;;;4.38;2.97;;;20.30;30.90;;;;;;5155251;27;20051;-80
2022/03/11 02:25:50;;;;;;;4.18;3.42;;;20.30;30.90;;;;;;5136614;27;20050;-79
2022/03/11 02:28:16;;;;;;;3.60;3.05;;;20.30;30.90;;;;;;5155321;27;20053;-80
2022/03/11 02:30:41;;;;;;;5.40;3.72;;;20.30;30.90;;;;;;5155064;27;20047;-80
2022/03/11 02:33:07;;;;;;;4.40;3.30;;;20.30;30.80;;;;;;5154886;27;20131;-80
2022/03/11 02:35:32;;;;;;;4.15;3.03;;;20.30;30.80;;;;;;5119138;27;20410;-80
2022/03/11 02:37:58;;;;;;;4.38;3.42;;;20.30;30.80;;;;;;5155219;27;20133;-79
2022/03/11 02:40:23;;;;;;;3.42;3.10;;;20.30;30.80;;;;;;5154765;27;20446;-79
2022/03/11 02:42:49;;;;;;;4.25;3.17;;;20.30;30.80;;;;;;5136639;27;20135;-80
2022/03/11 02:45:14;;;;;;;3.97;3.22;;;20.30;30.80;;;;;;5154848;27;20111;-80
2022/03/11 02:47:40;;;;;;;3.33;3.00;;;20.30;30.80;;;;;;5154668;27;20043;-79
2022/03/11 02:50:06;;;;;;;3.72;3.15;;;20.30;30.80;;;;;;5154634;27;20046;-80
2022/03/11 02:52:31;;;;;;;3.50;3.10;;;20.30;30.80;;;;;;5154800;27;20406;-79
2022/03/11 02:54:57;;;;;;;3.92;3.17;;;20.30;30.80;;;;;;5154939;27;20066;-79
2022/03/11 02:57:23;;;;;;;5.32;3.30;;;20.30;30.80;;;;;;5154673;27;20413;-79
2022/03/11 02:59:49;;;;;;;3.33;2.97;;;20.30;30.80;;;;;;5154539;27;20137;-80
2022/03/11 03:02:15;;;;;;;3.97;2.90;;;20.30;30.80;;;;;;5134228;27;20137;-80
2022/03/11 03:04:41;;;;;;;3.78;3.35;;;20.30;30.80;;;;;;5154258;27;20054;-80
2022/03/11 03:07:11;;;;;;;3.70;3.22;;;20.30;30.80;;;;;;5154353;27;20050;-80
2022/03/11 03:09:41;;;;;;;3.15;2.85;;;20.30;30.80;;;;;;5154598;27;20141;-80
2022/03/11 03:12:10;;;;;;;3.88;2.97;;;20.30;30.70;;;;;;5154194;27;20093;-80
2022/03/11 03:14:37;;;;;;;4.88;3.30;;;20.40;30.80;;;;;;5154146;27;20062;-80
2022/03/11 03:17:04;;;;;;;3.35;2.92;;;20.40;30.80;;;;;;5154164;27;20051;-79
2022/03/11 03:19:30;;;;;;;3.13;2.83;;;20.40;30.70;;;;;;5154072;27;20057;-80
2022/03/11 03:21:55;;;;;;;4.07;3.05;;;20.40;30.70;;;;;;5117793;27;20047;-80
2022/03/11 03:24:21;;;;;;;3.47;3.00;;;20.40;30.60;;;;;;5154127;27;20054;-80
2022/03/11 03:26:47;;;;;;;3.65;3.00;;;20.40;30.60;;;;;;5154141;27;20494;-79
2022/03/11 03:29:13;;;;;;;3.42;3.13;;;20.40;30.60;;;;;;5154182;27;20055;-80
2022/03/11 03:31:38;;;;;;;4.70;3.28;;;20.50;30.60;;;;;;5154324;27;20051;-79
2022/03/11 03:34:04;;;;;;;3.75;3.10;;;20.50;30.50;;;;;;5154102;27;20102;-80
2022/03/11 03:36:29;;;;;;;3.95;3.22;;;20.50;30.50;;;;;;5154243;27;20046;-79
2022/03/11 03:38:55;;;;;;;4.45;3.20;;;20.50;30.50;;;;;;5153925;27;20059;-80
2022/03/11 03:41:20;;;;;;;3.20;2.90;;;20.50;30.50;;;;;;5154520;27;20051;-80
2022/03/11 03:43:46;;;;;;;3.72;2.90;;;20.60;30.50;;;;;;5135463;27;20069;-80
2022/03/11 03:46:11;;;;;;;3.42;3.13;;;20.60;30.50;;;;;;5154061;27;20047;-80
2022/03/11 03:48:37;;;;;;;3.35;2.92;;;20.60;30.50;;;;;;5153947;27;20133;-79
2022/03/11 03:51:04;;;;;;;4.03;3.35;;;20.60;30.50;;;;;;5153921;27;20451;-79
2022/03/11 03:53:30;;;;;;;3.65;3.28;;;20.60;30.50;;;;;;5135786;27;20053;-80
2022/03/11 03:55:55;;;;;;;3.58;3.10;;;20.60;30.50;;;;;;5153953;27;20047;-80
2022/03/11 03:58:21;;;;;;;3.85;2.95;;;20.60;30.40;;;;;;5154134;27;20054;-80
2022/03/11 04:00:46;;;;;;;3.55;3.00;;;20.60;30.40;;;;;;5153687;27;20069;-79
2022/03/11 04:03:12;;;;;;;3.35;3.00;;;20.60;30.50;;;;;;5155272;27;20046;-80
2022/03/11 04:05:37;;;;;;;3.50;3.10;;;20.60;30.50;;;;;;5157389;27;20073;-80
2022/03/11 04:08:03;;;;;;;3.25;2.85;;;20.60;30.50;;;;;;5157357;27;20050;-80
2022/03/11 04:10:29;;;;;;;3.33;2.85;;;20.60;30.50;;;;;;5138724;27;20046;-79
2022/03/11 04:12:54;;;;;;;4.63;3.50;;;20.60;30.40;;;;;;5157284;27;20053;-79
2022/03/11 04:15:20;;;;;;;3.28;2.97;;;20.70;30.40;;;;;;5157293;27;20053;-80
2022/03/11 04:17:46;;;;;;;3.20;2.80;;;20.70;30.50;;;;;;5157136;27;20055;-80
2022/03/11 04:20:12;;;;;;;3.20;2.78;;;20.70;30.50;;;;;;5138834;27;20129;-80
2022/03/11 04:22:42;;;;;;;3.30;2.80;;;20.70;30.50;;;;;;5157139;27;20047;-79
2022/03/11 04:25:13;;;;;;;4.90;4.53;;;20.60;30.40;;;;;;5157144;27;20558;-79
2022/03/11 04:27:38;;;;;;;3.67;3.20;;;20.70;30.50;;;;;;5157018;27;20506;-80
2022/03/11 04:30:05;;;;;;;3.35;2.95;;;20.70;30.50;;;;;;5156982;27;20283;-80
2022/03/11 04:32:31;;;;;;;3.63;2.83;;;20.60;30.40;;;;;;5157015;27;20050;-80
2022/03/11 04:34:57;;;;;;;3.47;2.80;;;20.60;30.40;;;;;;5136085;27;20447;-80
2022/03/11 04:37:23;;;;;;;3.17;2.88;;;20.60;30.40;;;;;;5156679;27;20066;-80
2022/03/11 04:39:49;;;;;;;3.83;3.20;;;20.60;31.00;;;;;;5156690;27;20062;-80
2022/03/11 04:42:14;;;;;;;3.58;3.05;;;20.60;30.40;;;;;;5136402;27;20123;-80
2022/03/11 04:44:40;;;;;;;3.58;3.00;;;20.60;30.40;;;;;;5157234;27;20050;-80
2022/03/11 04:47:06;;;;;;;3.17;2.88;;;20.60;30.40;;;;;;5136624;27;20059;-79
2022/03/11 04:49:31;;;;;;;3.60;2.80;;;20.60;30.40;;;;;;5156392;27;20486;-80
2022/03/11 04:51:57;;;;;;;4.00;3.50;;;20.60;30.40;;;;;;5156398;27;20494;-79
2022/03/11 04:54:23;;;;;;;3.90;3.15;;;20.60;30.40;;;;;;5136406;27;20043;-79
2022/03/11 04:56:49;;;;;;;3.03;2.60;;;20.60;30.40;;;;;;5156566;27;20046;-80
2022/03/11 04:59:14;;;;;;;3.67;2.92;;;20.60;30.50;;;;;;5156627;27;20055;-79
2022/03/11 05:01:40;;;;;;;3.40;3.10;;;20.60;30.40;;;;;;5156476;27;20047;-79
2022/03/11 05:04:05;;;;;;;3.97;3.58;;;20.60;30.40;;;;;;5156422;27;20046;-79
2022/03/11 05:06:31;;;;;;;3.53;3.17;;;20.60;30.40;;;;;;5156437;27;20086;-79
2022/03/11 05:08:56;;;;;;;3.85;3.25;;;20.60;30.40;;;;;;5138384;27;20054;-79
2022/03/11 05:11:22;;;;;;;3.58;3.13;;;20.60;30.40;;;;;;5156374;27;20058;-79
2022/03/11 05:13:47;;;;;;;3.92;3.00;;;20.60;30.40;;;;;;5137279;27;20051;-80
2022/03/11 05:16:13;;;;;;;4.07;3.17;;;20.60;30.30;;;;;;5156303;27;20452;-80
2022/03/11 05:18:39;;;;;;;3.70;2.80;;;20.60;30.30;;;;;;5155953;27;20053;-79
2022/03/11 05:21:05;;;;;;;4.07;3.10;;;20.60;30.30;;;;;;5156087;27;20486;-79
2022/03/11 05:23:30;;;;;;;3.33;2.80;;;20.60;30.30;;;;;;5156129;27;20055;-80
2022/03/11 05:25:56;;;;;;;4.05;3.28;;;20.60;30.80;;;;;;5136211;27;20047;-79
2022/03/11 05:28:25;;;;;;;3.63;3.33;;;20.60;30.30;;;;;;5155934;27;20081;-80
2022/03/11 05:30:50;;;;;;;3.13;2.80;;;20.60;30.30;;;;;;5155994;27;20046;-79
2022/03/11 05:33:16;;;;;;;3.20;2.90;;;20.60;30.30;;;;;;5136380;27;20112;-80
2022/03/11 05:35:41;;;;;;;2.60;2.40;;;20.60;30.30;;;;;;5155987;27;20134;-80
2022/03/11 05:38:07;;;;;;;3.25;2.95;;;20.60;30.30;;;;;;5136788;27;20078;-80
2022/03/11 05:40:33;;;;;;;4.18;2.80;;;20.60;30.30;;;;;;5155709;27;20072;-80
2022/03/11 05:43:01;;;;;;;3.78;2.80;;;20.60;30.30;;;;;;5137699;27;20043;-80
2022/03/11 05:45:26;;;;;;;3.53;2.92;;;20.60;30.40;;;;;;5155899;27;20054;-79
2022/03/11 05:47:52;;;;;;;3.38;2.70;;;20.60;30.30;;;;;;5136769;27;20058;-79
2022/03/11 05:50:17;;;;;;;3.72;2.83;;;20.60;30.40;;;;;;5155694;27;20566;-80
2022/03/11 05:52:43;;;;;;;3.85;3.30;;;20.60;30.30;;;;;;5155653;27;20050;-79
2022/03/11 05:55:09;;;;;;;3.45;2.90;;;20.60;30.30;;;;;;5155609;27;20130;-79
2022/03/11 05:57:35;;;;;;;3.78;3.25;;;20.60;30.30;;;;;;5155411;27;20058;-80
2022/03/11 06:00:06;;;;;;;3.55;2.95;;;20.60;30.30;;;;;;5155493;27;20442;-79
2022/03/11 06:02:39;;;;;;;3.83;2.95;;;20.60;30.30;;;;;;5137798;27;20406;-79
2022/03/11 06:05:05;;;;;;;3.38;2.83;;;20.60;30.20;;;;;;5137152;27;20516;-80
2022/03/11 06:07:31;;;;;;;3.47;3.08;;;20.70;30.10;;;;;;5155317;27;20090;-81
2022/03/11 06:09:57;;;;;;;4.30;3.25;;;20.80;30.10;;;;;;5136756;27;20415;-80
2022/03/11 06:12:25;;;;;;;4.18;3.50;;;20.80;30.00;;;;;;5136657;27;20058;-80
2022/03/11 06:14:51;;;;;;;3.78;3.38;;;20.90;30.00;;;;;;5155205;27;20049;-80
2022/03/11 06:17:16;;;;;;;3.55;3.08;;;20.90;30.00;;;;;;5134581;27;20498;-80
2022/03/11 06:19:43;;;;;;;3.05;2.75;;;21.00;29.90;;;;;;5118986;27;20097;-80
2022/03/11 06:22:08;;;;;;;3.53;2.92;;;21.00;29.90;;;;;;5155006;27;20057;-79
2022/03/11 06:24:35;;;;;;;3.22;2.85;;;21.10;29.80;;;;;;5155063;27;20061;-79
2022/03/11 06:27:01;;;;;;;3.20;2.78;;;21.10;29.80;;;;;;5154439;27;20046;-79
2022/03/11 06:29:26;;;;;;;4.00;3.15;;;21.20;29.70;;;;;;5135196;27;20079;-79
2022/03/11 06:31:52;;;;;;;4.65;2.80;;;21.30;29.70;;;;;;5134435;27;20104;-79
2022/03/11 06:34:18;;;;;;;3.78;3.38;;;21.30;29.70;;;;;;5155345;27;20455;-79
2022/03/11 06:36:45;;;;;;;3.33;3.03;;;21.40;29.60;;;;;;5136596;27;20042;-79
2022/03/11 06:39:13;;;;;;;4.53;3.53;;;21.40;29.50;;;;;;5154719;27;20047;-80
2022/03/11 06:41:40;;;;;;;4.53;3.20;;;21.50;29.50;;;;;;5154834;27;20501;-80
2022/03/11 06:44:06;;;;;;;4.07;3.20;;;21.50;29.50;;;;;;5155118;27;20050;-80
2022/03/11 06:46:31;;;;;;;3.28;2.92;;;21.60;29.40;;;;;;5136172;27;20073;-80
2022/03/11 06:48:57;;;;;;;3.42;2.97;;;21.60;29.40;;;;;;5134686;27;20058;-80
2022/03/11 06:51:23;;;;;;;4.07;3.40;;;21.70;29.40;;;;;;5154730;27;20046;-80
2022/03/11 06:53:48;;;;;;;3.65;3.22;;;21.70;29.30;;;;;;5135448;27;20059;-80
2022/03/11 06:56:14;;;;;;;3.83;3.42;;;21.80;29.30;;;;;;5136151;27;20047;-80
2022/03/11 06:58:39;;;;;;;4.00;3.13;;;21.80;29.30;;;;;;5154557;27;20078;-80
2022/03/11 07:01:05;;;;;;;3.55;2.88;;;21.80;29.20;;;;;;5154538;27;20078;-80
2022/03/11 07:03:30;;;;;;;3.35;2.95;;;21.90;29.20;;;;;;5154490;27;20046;-80
2022/03/11 07:05:56;;;;;;;3.10;2.72;;;21.90;29.20;;;;;;5154634;27;20043;-80
2022/03/11 07:08:22;;;;;;;3.03;2.72;;;21.90;29.20;;;;;;5154411;27;20137;-80
2022/03/11 07:10:47;;;;;;;3.47;3.10;;;21.90;29.10;;;;;;5154427;27;20129;-80
2022/03/11 07:13:14;;;;;;;4.43;3.20;;;22.00;29.10;;;;;;5154472;27;20043;-79
2022/03/11 07:15:40;;;;;;;4.72;3.35;;;22.00;29.10;;;;;;5154685;27;20058;-80
2022/03/11 07:18:05;;;;;;;4.38;3.22;;;22.00;29.10;;;;;;5154332;27;20103;-80
2022/03/11 07:20:31;;;;;;;4.15;3.40;;;22.00;29.10;;;;;;5135511;27;20047;-80
2022/03/11 07:22:57;;;;;;;3.60;3.00;;;22.00;29.10;;;;;;5154412;27;20046;-80
2022/03/11 07:25:23;;;;;;;2.92;2.60;;;22.10;29.10;;;;;;5154281;27;20153;-80
2022/03/11 07:27:49;;;;;;;3.65;3.15;;;22.10;29.00;;;;;;5153986;27;20086;-80
2022/03/11 07:30:15;;;;;;;4.55;3.15;;;22.10;29.00;;;;;;5154263;27;20047;-80
2022/03/11 07:32:41;;;;;;;3.40;2.90;;;22.20;29.00;;;;;;5154679;27;20054;-80
2022/03/11 07:35:12;;;;;;;3.58;3.28;;;22.20;29.00;;;;;;5154066;27;20444;-80
2022/03/11 07:37:40;;;;;;;3.90;2.72;;;22.20;29.00;;;;;;5156295;27;20058;-80
2022/03/11 07:40:06;;;;;;;4.03;2.95;;;22.20;28.90;;;;;;5119831;27;20055;-80
2022/03/11 07:42:32;;;;;;;3.50;3.10;;;22.20;28.90;;;;;;5157821;27;20398;-80
2022/03/11 07:45:02;;;;;;;3.72;2.88;;;22.20;28.90;;;;;;5139156;27;20086;-80
2022/03/11 07:47:28;;;;;;;3.70;3.17;;;22.20;28.90;;;;;;5157653;27;20508;-80
2022/03/11 07:49:54;;;;;;;4.45;3.35;;;22.20;28.90;;;;;;5138847;27;20050;-80
2022/03/11 07:52:22;;;;;;;4.47;3.30;;;22.20;28.90;;;;;;5139002;27;20057;-80
2022/03/11 07:54:48;;;;;;;4.03;3.08;;;22.20;28.90;;;;;;5157546;27;20043;-80
2022/03/11 07:57:14;;;;;;;5.15;3.47;;;22.10;28.90;;;;;;5138833;27;20066;-80
2022/03/11 07:59:41;;;;;;;3.63;3.30;;;22.10;28.90;;;;;;5157610;27;20062;-80
2022/03/11 08:02:07;;;;;;;4.10;3.17;;;22.10;29.00;;;;;;5137427;27;20055;-80
2022/03/11 08:04:33;;;;;;;3.97;3.10;;;22.10;29.00;;;;;;5157340;27;20051;-80
2022/03/11 08:07:06;;;;;;;3.70;3.13;;;22.00;29.00;;;;;;5157282;27;20073;-80
2022/03/11 08:09:33;;;;;;;3.85;3.20;;;22.00;29.00;;;;;;5157403;27;20054;-80
2022/03/11 08:11:59;;;;;;;3.95;3.20;;;22.00;29.10;;;;;;5157141;27;20058;-80
2022/03/11 08:14:24;;;;;;;3.80;2.95;;;21.90;29.10;;;;;;5157107;27;20054;-80
2022/03/11 08:16:50;;;;;;;3.95;2.92;;;21.90;29.20;;;;;;5157240;27;20444;-80
2022/03/11 08:19:16;;;;;;;3.88;3.20;;;21.90;29.20;;;;;;5156925;27;20079;-80
2022/03/11 08:21:41;;;;;;;3.53;3.22;;;21.80;29.30;;;;;;5157103;27;20474;-80
2022/03/11 08:24:07;;;;;;;4.50;3.42;;;21.80;29.30;;;;;;5157158;27;20482;-80
2022/03/11 08:26:32;;;;;;;2.92;2.63;;;21.80;29.30;;;;;;5157311;27;20138;-80
2022/03/11 08:28:59;;;;;;;3.28;2.97;;;21.70;29.30;;;;;;5136714;27;20432;-80
2022/03/11 08:31:25;;;;;;;3.22;2.80;;;21.70;29.40;;;;;;5138242;27;20047;-80
2022/03/11 08:33:50;;;;;;;3.88;2.70;;;21.60;29.40;;;;;;5157009;27;20076;-80
2022/03/11 08:36:16;;;;;;;4.47;3.25;;;21.60;29.50;;;;;;5157025;27;20143;-80
2022/03/11 08:38:42;;;;;;;4.15;3.30;;;21.60;29.50;;;;;;5153059;27;20053;-80
2022/03/11 08:41:08;;;;;;;4.03;3.15;;;21.50;29.50;;;;;;5156655;27;20054;-80
2022/03/11 08:43:38;;;;;;;5.60;3.20;;;21.50;29.50;;;;;;5156722;27;20050;-80
2022/03/11 08:46:04;;;;;;;3.85;3.00;;;21.50;29.50;;;;;;5156595;27;20058;-80
2022/03/11 08:48:30;;;;;;;3.05;2.75;;;21.50;29.60;;;;;;5155911;27;20142;-80
2022/03/11 08:50:55;;;;;;;3.78;3.03;;;21.40;29.60;;;;;;5137845;27;20125;-80
2022/03/11 08:53:21;;;;;;;5.50;3.60;;;21.40;29.60;;;;;;5138282;27;20050;-80
2022/03/11 08:55:47;;;;;;;3.45;3.15;;;21.30;29.60;;;;;;5156605;27;20108;-80
2022/03/11 08:58:12;;;;;;;4.05;2.97;;;21.30;29.70;;;;;;5137971;27;20047;-80
2022/03/11 09:00:38;;;;;;;5.05;3.03;;;21.30;29.70;;;;;;5137101;27;20058;-80
2022/03/11 09:03:03;;;;;;;3.75;3.00;;;21.30;29.70;;;;;;5156620;27;20055;-80
2022/03/11 09:05:29;;;;;;;3.75;2.72;;;21.30;29.80;;;;;;5156969;27;20051;-81
2022/03/11 09:07:56;;;;;;;3.95;3.03;;;21.20;29.70;;;;;;5156420;27;20065;-81
2022/03/11 09:10:22;;;;;;;3.83;2.90;;;21.20;29.70;;;;;;5137679;27;20047;-81
2022/03/11 09:12:47;;;;;;;4.82;3.17;;;21.20;29.80;;;;;;5156426;27;20130;-81
2022/03/11 09:15:13;;;;;;;3.83;2.83;;;21.20;29.70;;;;;;5156297;27;20095;-80
2022/03/11 09:17:39;;;;;;;4.10;3.10;;;21.20;29.80;;;;;;5156074;27;20095;-80
2022/03/11 09:20:06;;;;;;;3.30;2.70;;;21.20;29.80;;;;;;5156036;27;20046;-80
2022/03/11 09:22:32;;;;;;;3.80;2.85;;;21.20;29.80;;;;;;5156074;27;20051;-81
2022/03/11 09:24:58;;;;;;;3.20;2.90;;;21.10;29.80;;;;;;5156109;27;20053;-80
2022/03/11 09:27:24;;;;;;;4.22;3.20;;;21.10;29.80;;;;;;5156095;27;20059;-81
2022/03/11 09:29:50;;;;;;;4.07;3.38;;;21.10;29.90;;;;;;5156020;27;20491;-81
2022/03/11 09:32:16;;;;;;;4.80;3.20;;;21.10;29.90;;;;;;5155897;27;20103;-80
2022/03/11 09:34:43;;;;;;;4.20;3.03;;;21.10;29.90;;;;;;5155870;27;20046;-80
2022/03/11 09:37:09;;;;;;;4.43;3.42;;;21.10;29.90;;;;;;5135975;27;20055;-81
2022/03/11 09:39:35;;;;;;;3.88;3.20;;;21.00;29.90;;;;;;5135533;27;20399;-80
2022/03/11 09:42:05;;;;;;;3.47;3.15;;;21.10;29.80;;;;;;5155679;27;20047;-80
2022/03/11 09:44:32;;;;;;;3.97;2.72;;;21.10;29.90;;;;;;5155730;27;20137;-80
2022/03/11 09:46:58;;;;;;;3.22;2.85;;;21.10;29.90;;;;;;5155728;27;20138;-80
2022/03/11 09:49:24;;;;;;;4.25;3.42;;;21.10;29.90;;;;;;5155569;27;20055;-81
2022/03/11 09:51:49;;;;;;;3.50;2.80;;;21.10;29.80;;;;;;5137099;27;21247;-80
2022/03/11 09:54:16;;;;;;;4.00;2.90;;;21.10;29.90;;;;;;5155701;27;20050;-80
2022/03/11 09:56:43;;;;;;;5.20;3.20;;;21.10;29.80;;;;;;5135539;27;20055;-80
2022/03/11 09:59:10;;;;;;;3.78;2.90;;;21.10;29.90;;;;;;5155610;27;20058;-80
2022/03/11 10:01:36;;;;;;;4.07;3.22;;;21.10;29.80;;;;;;5135543;27;20050;-80
2022/03/11 10:04:04;;;;;;;4.60;3.10;;;21.10;29.80;;;;;;5137095;27;20557;-80
2022/03/11 10:06:46;;;;;;;3.70;3.00;;;21.10;29.80;;;;;;5155423;27;20085;-80
2022/03/11 10:09:18;;;;;;;4.72;3.60;;;21.10;29.80;;;;;;5151127;27;20137;-80
2022/03/11 10:11:58;;;;;;;3.78;3.15;;;21.10;29.80;;;;;;5155520;27;20034;-80
2022/03/11 10:14:28;;;;;;;4.45;3.30;;;21.10;29.80;;;;;;5155377;27;20119;-80
2022/03/11 10:16:54;;;;;;;4.53;3.13;;;21.10;29.80;;;;;;5155170;27;20050;-80
2022/03/11 10:19:22;;;;;;;4.28;3.28;;;21.10;29.80;;;;;;5154904;27;20058;-80
2022/03/11 10:21:49;;;;;;;4.50;3.35;;;21.10;29.80;;;;;;5136865;27;20042;-80
2022/03/11 10:24:20;;;;;;;3.55;2.60;;;21.10;29.80;;;;;;5136623;27;20085;-81
2022/03/11 10:26:51;;;;;;;4.75;3.20;;;21.10;29.80;;;;;;5155435;27;20050;-80
2022/03/11 10:29:22;;;;;;;4.00;2.97;;;21.10;29.80;;;;;;5155452;27;20085;-80
2022/03/11 10:31:51;;;;;;;5.13;3.22;;;21.10;29.80;;;;;;5136987;27;20393;-80
2022/03/11 10:34:27;;;;;;;3.97;3.00;;;21.10;29.80;;;;;;5155073;27;20047;-80
2022/03/11 10:37:02;;;;;;;3.75;3.20;;;21.10;29.80;;;;;;5154889;27;20047;-80
2022/03/11 10:39:38;;;;;;;4.15;2.90;;;21.10;29.80;;;;;;5154823;27;20046;-80
2022/03/11 10:42:16;;;;;;;3.78;3.15;;;21.10;29.80;;;;;;5155141;27;20047;-80
2022/03/11 10:45:03;;;;;;;4.05;3.25;;;21.10;29.80;;;;;;5135611;27;20958;-80
2022/03/11 10:47:31;;;;;;;5.97;3.17;;;21.10;29.70;;;;;;5154525;27;20058;-80
2022/03/11 10:49:59;;;;;;;4.05;3.03;;;21.10;29.70;;;;;;5136109;27;20042;-80
2022/03/11 10:52:44;;;;;;;4.13;3.33;;;21.10;29.70;;;;;;5136346;27;20054;-80
2022/03/11 10:55:23;;;;;;;3.72;3.25;;;21.10;29.80;;;;;;5154660;27;20055;-81
2022/03/11 10:57:52;;;;;;;4.28;3.22;;;21.10;29.80;;;;;;5134005;27;20055;-80
2022/03/11 11:00:41;;;;;;;3.80;3.13;;;21.10;29.80;;;;;;5154845;27;20478;-80
2022/03/11 11:03:08;;;;;;;3.63;3.05;;;21.10;29.80;;;;;;5154829;27;20537;-80
2022/03/11 11:05:35;;;;;;;5.82;3.10;;;21.10;29.80;;;;;;5150367;27;20051;-80
2022/03/11 11:08:04;;;;;;;4.20;2.95;;;21.10;29.80;;;;;;5154346;27;20498;-80
2022/03/11 11:10:33;;;;;;;4.25;3.40;;;21.10;29.80;;;;;;5154525;27;20107;-80
2022/03/11 11:12:59;;;;;;;3.50;3.05;;;21.10;29.80;;;;;;5153876;27;20051;-80
2022/03/11 11:15:24;;;;;;;3.65;2.95;;;21.20;29.70;;;;;;5154744;27;20047;-80
2022/03/11 11:17:53;;;;;;;3.92;3.17;;;21.10;29.70;;;;;;5135743;27;20050;-80
2022/03/11 11:20:22;;;;;;;4.47;3.13;;;21.10;29.70;;;;;;5135078;27;20077;-80
2022/03/11 11:22:51;;;;;;;3.30;3.00;;;21.10;29.70;;;;;;5133547;28;20402;-80
2022/03/11 11:25:22;;;;;;;4.40;3.13;;;21.20;29.80;;;;;;5115123;28;20058;-80
2022/03/11 11:27:49;;;;;;;3.85;3.17;;;21.10;29.70;;;;;;5133707;28;20054;-80
2022/03/11 11:30:24;;;;;;;3.50;3.20;;;21.20;29.70;;;;;;5098050;28;20043;-80
2022/03/11 11:32:52;;;;;;;6.13;3.30;;;21.10;29.70;;;;;;5115270;28;20084;-80
2022/03/11 11:35:29;;;;;;;3.70;3.17;;;21.10;29.70;;;;;;5133357;28;20480;-80
2022/03/11 11:37:57;;;;;;;4.40;3.30;;;21.10;29.70;;;;;;5133315;28;20047;-80
2022/03/11 11:40:32;;;;;;;4.05;3.35;;;21.20;29.80;;;;;;5114927;28;20047;-80
2022/03/11 11:43:16;;;;;;;5.15;3.50;;;21.20;29.80;;;;;;5133763;28;20047;-80
2022/03/11 11:46:07;;;;;;;4.22;2.78;;;21.10;29.70;;;;;;5115025;28;20075;-80
2022/03/11 11:48:34;;;;;;;4.32;2.97;;;21.20;29.70;;;;;;5113746;28;20122;-80
2022/03/11 11:51:02;;;;;;;3.45;2.90;;;21.20;29.70;;;;;;5133538;28;20051;-80
2022/03/11 11:53:43;;;;;;;3.65;3.25;;;21.20;29.80;;;;;;5115212;28;20066;-80
2022/03/11 11:56:28;;;;;;;4.75;3.25;;;21.20;29.80;;;;;;5097485;28;20152;-80
2022/03/11 11:58:57;;;;;;;3.15;2.67;;;21.20;29.80;;;;;;5132952;28;20051;-80
2022/03/11 12:01:48;;;;;;;3.67;3.08;;;21.10;29.70;;;;;;5133141;28;20486;-80
2022/03/11 12:04:27;;;;;;;3.92;3.17;;;21.20;30.10;;;;;;5112900;28;20526;-80
2022/03/11 12:07:09;;;;;;;4.03;3.03;;;21.10;29.70;;;;;;5132878;28;20063;-80
2022/03/11 12:09:38;;;;;;;5.03;3.20;;;21.10;29.70;;;;;;5132538;28;20570;-80
2022/03/11 12:12:35;;;;;;;4.30;3.30;;;21.20;29.70;;;;;;5132662;28;20054;-80
2022/03/11 12:15:04;;;;;;;3.25;2.90;;;21.20;29.70;;;;;;5114163;28;20050;-80
2022/03/11 12:17:36;;;;;;;3.50;3.00;;;21.20;29.70;;;;;;5132853;28;20096;-80
2022/03/11 12:20:21;;;;;;;3.83;3.10;;;21.20;29.70;;;;;;5114253;28;20054;-80
2022/03/11 12:23:19;;;;;;;3.38;3.08;;;21.20;29.70;;;;;;5132787;27;20077;-80
2022/03/11 12:25:59;;;;;;;3.80;3.33;;;21.20;29.70;;;;;;5135644;28;20051;-80
2022/03/11 12:28:27;;;;;;;3.75;3.00;;;21.20;29.70;;;;;;5136058;28;20058;-80
2022/03/11 12:30:55;;;;;;;3.58;3.20;;;21.20;30.10;;;;;;5136322;28;20496;-80
2022/03/11 12:33:42;;;;;;;4.05;3.30;;;21.10;29.60;;;;;;5136296;28;20052;-80
2022/03/11 12:36:22;;;;;;;4.00;2.92;;;21.20;29.70;;;;;;5117494;28;20050;-80
2022/03/11 12:38:49;;;;;;;3.80;3.20;;;21.20;29.70;;;;;;5136110;28;20047;-80
2022/03/11 12:41:25;;;;;;;4.05;2.95;;;21.20;29.70;;;;;;5136060;28;20092;-80
2022/03/11 12:43:51;;;;;;;4.47;3.10;;;21.20;29.70;;;;;;5136150;28;20096;-80
2022/03/11 12:46:16;;;;;;;3.63;3.00;;;21.10;29.60;;;;;;5117146;28;20084;-80
2022/03/11 12:48:45;;;;;;;4.40;3.40;;;21.20;29.60;;;;;;5135808;28;20047;-80
2022/03/11 12:51:17;;;;;;;3.20;2.90;;;21.20;29.60;;;;;;5117501;28;20089;-80